Time;durP1;ratioP1;P1;durP2;ratioP2;P2;SDS_P1;SDS_P2;PMS_P1;PMS_P2;Temp;Humidity;BMP_temperature;BMP_pressure;BME280_temperature;BME280_humidity;BME280_pressure;Samples;Min_cycle;Max_cycle;Signal;HPM_P1;HPM_P2
2021/07/02 00:02:05;;;;;;;1.88;0.75;;;;;;;;;;5013758;28;20072;-60
2021/07/02 00:04:32;;;;;;;0.82;0.60;;;;;;;;;;5014154;28;20172;-60
2021/07/02 00:06:58;;;;;;;5.82;0.73;;;;;;;;;;5014171;28;20029;-60
2021/07/02 00:09:24;;;;;;;0.95;0.80;;;;;;;;;;5013737;28;20022;-60
2021/07/02 00:11:50;;;;;;;2.28;0.57;;;;;;;;;;5014023;28;20024;-60
2021/07/02 00:14:15;;;;;;;1.00;0.90;;;;;;;;;;5014360;28;20026;-60
2021/07/02 00:16:41;;;;;;;2.22;0.70;;;;;;;;;;5013529;28;20074;-60
2021/07/02 00:19:06;;;;;;;1.85;0.77;;;;;;;;;;5014246;28;20053;-60
2021/07/02 00:21:32;;;;;;;3.78;0.70;;;;;;;;;;5013914;28;20018;-60
2021/07/02 00:23:58;;;;;;;3.53;0.73;;;;;;;;;;4995607;28;20061;-61
2021/07/02 00:26:24;;;;;;;3.78;0.80;;;;;;;;;;5013847;28;20022;-60
2021/07/02 00:28:50;;;;;;;0.80;0.75;;;;;;;;;;5014033;28;20022;-60
2021/07/02 00:31:15;;;;;;;0.60;0.60;;;;;;;;;;5013544;28;20383;-60
2021/07/02 00:33:41;;;;;;;1.40;0.70;;;;;;;;;;5013616;28;20029;-60
2021/07/02 00:36:07;;;;;;;1.73;0.70;;;;;;;;;;5013321;28;20018;-60
2021/07/02 00:38:33;;;;;;;0.68;0.68;;;;;;;;;;5013272;28;20052;-60
2021/07/02 00:40:59;;;;;;;1.77;0.60;;;;;;;;;;5013870;28;20108;-61
2021/07/02 00:43:26;;;;;;;0.88;0.88;;;;;;;;;;5013494;28;20154;-61
2021/07/02 00:45:52;;;;;;;1.02;0.60;;;;;;;;;;5013141;28;20094;-61
2021/07/02 00:48:17;;;;;;;2.05;0.70;;;;;;;;;;5013769;28;20374;-61
2021/07/02 00:50:43;;;;;;;0.65;0.60;;;;;;;;;;5013617;28;20018;-61
2021/07/02 00:53:11;;;;;;;1.17;0.63;;;;;;;;;;5013116;28;20107;-61
2021/07/02 00:55:36;;;;;;;3.45;0.70;;;;;;;;;;5013354;28;20026;-61
2021/07/02 00:58:03;;;;;;;2.80;0.80;;;;;;;;;;5013416;28;20503;-61
2021/07/02 01:00:29;;;;;;;0.95;0.60;;;;;;;;;;5012865;28;20018;-61
2021/07/02 01:02:55;;;;;;;1.10;0.75;;;;;;;;;;5012467;28;20069;-61
2021/07/02 01:05:20;;;;;;;1.35;0.55;;;;;;;;;;5013441;28;20053;-61
2021/07/02 01:07:46;;;;;;;2.08;0.63;;;;;;;;;;5012329;28;20382;-62
2021/07/02 01:10:16;;;;;;;1.67;0.70;;;;;;;;;;5013156;28;20018;-61
2021/07/02 01:12:43;;;;;;;1.75;0.88;;;;;;;;;;5013024;28;20076;-61
2021/07/02 01:15:27;;;;;;;1.90;0.70;;;;;;;;;;5012921;28;20026;-61
2021/07/02 01:17:53;;;;;;;1.08;0.60;;;;;;;;;;5012920;28;20383;-61
2021/07/02 01:20:19;;;;;;;4.95;0.80;;;;;;;;;;5012954;28;20022;-61
2021/07/02 01:22:45;;;;;;;0.57;0.57;;;;;;;;;;5012494;28;20068;-61
2021/07/02 01:25:11;;;;;;;1.05;0.90;;;;;;;;;;5012862;28;20022;-61
2021/07/02 01:27:37;;;;;;;1.00;0.77;;;;;;;;;;5012680;28;20064;-61
2021/07/02 01:30:04;;;;;;;5.25;0.60;;;;;;;;;;5012564;28;20104;-61
2021/07/02 01:32:30;;;;;;;0.65;0.60;;;;;;;;;;5012827;28;20052;-61
2021/07/02 01:34:56;;;;;;;4.00;0.75;;;;;;;;;;5012898;28;20022;-61
2021/07/02 01:37:22;;;;;;;0.88;0.63;;;;;;;;;;5012405;28;20042;-61
2021/07/02 01:39:49;;;;;;;3.05;0.93;;;;;;;;;;5012464;28;20022;-61
2021/07/02 01:42:14;;;;;;;1.75;0.60;;;;;;;;;;5012695;28;20475;-61
2021/07/02 01:44:40;;;;;;;2.75;0.82;;;;;;;;;;5012534;28;20098;-61
2021/07/02 01:47:06;;;;;;;2.45;0.80;;;;;;;;;;5012604;28;20025;-61
2021/07/02 01:49:32;;;;;;;1.67;0.68;;;;;;;;;;5012516;28;20018;-60
2021/07/02 01:51:59;;;;;;;0.77;0.77;;;;;;;;;;5012017;28;20029;-61
2021/07/02 01:54:25;;;;;;;0.60;0.60;;;;;;;;;;5012893;28;20022;-61
2021/07/02 01:56:50;;;;;;;2.22;0.60;;;;;;;;;;5013032;28;20026;-61
2021/07/02 01:59:16;;;;;;;0.70;0.70;;;;;;;;;;5012381;28;20128;-60
2021/07/02 02:01:43;;;;;;;1.55;0.80;;;;;;;;;;5012449;28;20026;-61
2021/07/02 02:04:09;;;;;;;2.67;0.98;;;;;;;;;;5012058;28;20112;-61
2021/07/02 02:06:35;;;;;;;2.05;0.57;;;;;;;;;;5012067;28;20010;-61
2021/07/02 02:09:02;;;;;;;9.18;1.50;;;;;;;;;;5012434;28;20014;-61
2021/07/02 02:11:28;;;;;;;7.78;0.85;;;;;;;;;;5012535;28;20112;-61
2021/07/02 02:13:54;;;;;;;0.70;0.70;;;;;;;;;;5013334;28;20160;-61
2021/07/02 02:16:20;;;;;;;7.97;1.80;;;;;;;;;;5016152;28;20041;-61
2021/07/02 02:18:45;;;;;;;5.65;1.38;;;;;;;;;;5016445;28;20467;-61
2021/07/02 02:21:11;;;;;;;8.80;1.88;;;;;;;;;;5015958;28;20026;-61
2021/07/02 02:23:36;;;;;;;20.20;3.63;;;;;;;;;;5016065;28;20029;-60
2021/07/02 02:26:03;;;;;;;57.97;54.25;;;;;;;;;;5016262;28;20474;-61
2021/07/02 02:28:28;;;;;;;24.13;22.33;;;;;;;;;;5015769;28;20058;-60
2021/07/02 02:30:54;;;;;;;44.45;41.13;;;;;;;;;;5015977;28;20053;-61
2021/07/02 02:33:20;;;;;;;216.80;182.15;;;;;;;;;;5016167;28;20398;-61
2021/07/02 02:35:45;;;;;;;9.48;4.32;;;;;;;;;;5015547;28;20105;-60
2021/07/02 02:38:11;;;;;;;3.15;1.75;;;;;;;;;;5015894;28;20058;-61
2021/07/02 02:40:37;;;;;;;3.58;1.42;;;;;;;;;;5016149;28;20021;-61
2021/07/02 02:43:02;;;;;;;17.98;5.13;;;;;;;;;;5015484;28;20034;-61
2021/07/02 02:45:27;;;;;;;310.27;244.77;;;;;;;;;;5015690;28;20521;-61
2021/07/02 02:47:54;;;;;;;26.05;14.35;;;;;;;;;;5015468;28;20022;-61
2021/07/02 02:50:19;;;;;;;12.98;4.32;;;;;;;;;;5015181;28;20013;-60
2021/07/02 02:52:45;;;;;;;21.13;16.40;;;;;;;;;;5015860;28;20021;-61
2021/07/02 02:55:11;;;;;;;243.18;147.80;;;;;;;;;;5015646;28;20429;-61
2021/07/02 02:57:37;;;;;;;11.02;6.20;;;;;;;;;;5014848;28;20049;-60
2021/07/02 03:00:05;;;;;;;29.30;27.02;;;;;;;;;;5015135;28;20021;-61
2021/07/02 03:02:31;;;;;;;1.75;0.90;;;;;;;;;;5015418;28;20042;-61
2021/07/02 03:04:57;;;;;;;3.80;1.00;;;;;;;;;;5015031;28;20371;-61
2021/07/02 03:07:22;;;;;;;3.85;1.45;;;;;;;;;;5015712;28;20113;-60
2021/07/02 03:09:49;;;;;;;8.20;1.30;;;;;;;;;;5015398;28;20590;-60
2021/07/02 03:12:14;;;;;;;5.00;1.00;;;;;;;;;;5015081;28;20100;-61
2021/07/02 03:14:41;;;;;;;2.70;1.17;;;;;;;;;;5015090;28;20105;-60
2021/07/02 03:17:06;;;;;;;2.15;1.00;;;;;;;;;;5015022;28;20018;-61
2021/07/02 03:19:31;;;;;;;4.63;1.25;;;;;;;;;;5015022;28;20029;-60
2021/07/02 03:21:58;;;;;;;1.48;1.00;;;;;;;;;;5014744;28;20025;-61
2021/07/02 03:24:23;;;;;;;3.83;1.20;;;;;;;;;;5014907;28;20071;-61
2021/07/02 03:26:50;;;;;;;4.88;1.20;;;;;;;;;;5014751;28;20113;-62
2021/07/02 03:29:15;;;;;;;2.55;1.02;;;;;;;;;;5014396;28;20017;-61
2021/07/02 03:31:41;;;;;;;2.53;0.88;;;;;;;;;;5014631;28;20018;-60
2021/07/02 03:34:07;;;;;;;5.07;1.10;;;;;;;;;;5014868;28;20056;-61
2021/07/02 03:36:33;;;;;;;2.88;0.80;;;;;;;;;;5014383;28;20053;-61
2021/07/02 03:38:59;;;;;;;4.03;1.30;;;;;;;;;;5014846;28;20466;-61
2021/07/02 03:41:25;;;;;;;2.00;1.20;;;;;;;;;;5014857;28;20029;-61
2021/07/02 03:43:52;;;;;;;3.67;1.23;;;;;;;;;;5014120;28;20052;-61
2021/07/02 03:46:18;;;;;;;4.10;1.08;;;;;;;;;;5014560;28;20024;-61
2021/07/02 03:48:43;;;;;;;2.95;1.25;;;;;;;;;;5014908;28;20036;-60
2021/07/02 03:51:10;;;;;;;4.50;2.13;;;;;;;;;;5014107;28;20022;-61
2021/07/02 03:53:36;;;;;;;3.00;1.20;;;;;;;;;;5014675;28;20132;-60
2021/07/02 03:56:03;;;;;;;6.03;1.50;;;;;;;;;;5014359;28;20037;-61
2021/07/02 03:58:28;;;;;;;1.10;1.00;;;;;;;;;;5013909;28;20035;-61
2021/07/02 04:00:54;;;;;;;3.05;1.35;;;;;;;;;;5014540;28;20022;-61
2021/07/02 04:03:19;;;;;;;2.80;1.10;;;;;;;;;;5014121;28;20380;-61
2021/07/02 04:05:45;;;;;;;1.30;0.60;;;;;;;;;;5013731;28;20356;-61
2021/07/02 04:08:11;;;;;;;0.80;0.80;;;;;;;;;;5014451;28;20022;-61
2021/07/02 04:10:38;;;;;;;2.35;1.05;;;;;;;;;;5014213;28;20159;-60
2021/07/02 04:13:03;;;;;;;3.72;0.80;;;;;;;;;;5013818;28;20018;-61
2021/07/02 04:15:29;;;;;;;3.60;1.00;;;;;;;;;;5014600;28;20025;-61
2021/07/02 04:17:54;;;;;;;7.45;1.08;;;;;;;;;;5013853;28;20108;-61
2021/07/02 04:20:20;;;;;;;0.70;0.65;;;;;;;;;;5013916;28;20125;-61
2021/07/02 04:22:46;;;;;;;3.72;0.88;;;;;;;;;;5014155;28;20479;-60
2021/07/02 04:25:12;;;;;;;0.80;0.80;;;;;;;;;;5013712;28;20109;-60
2021/07/02 04:27:38;;;;;;;3.22;1.30;;;;;;;;;;5013438;28;20360;-61
2021/07/02 04:30:04;;;;;;;0.80;0.77;;;;;;;;;;5013638;28;20068;-62
2021/07/02 04:32:29;;;;;;;2.35;1.50;;;;;;;;;;5014008;28;20030;-61
2021/07/02 04:34:55;;;;;;;3.63;1.13;;;;;;;;;;5013592;28;20112;-62
2021/07/02 04:37:21;;;;;;;2.30;1.00;;;;;;;;;;5013046;28;20081;-61
2021/07/02 04:39:47;;;;;;;3.20;1.02;;;;;;;;;;5013607;28;20026;-61
2021/07/02 04:42:12;;;;;;;5.30;1.00;;;;;;;;;;5013379;28;20017;-61
2021/07/02 04:44:38;;;;;;;3.05;1.00;;;;;;;;;;5013600;28;20014;-62
2021/07/02 04:47:05;;;;;;;2.78;1.27;;;;;;;;;;5013983;28;20076;-61
2021/07/02 04:49:31;;;;;;;2.97;0.98;;;;;;;;;;5012972;28;20064;-61
2021/07/02 04:51:59;;;;;;;2.50;1.10;;;;;;;;;;5013421;28;20034;-62
2021/07/02 04:54:24;;;;;;;3.90;0.90;;;;;;;;;;5013482;28;20022;-61
2021/07/02 04:56:51;;;;;;;1.50;0.80;;;;;;;;;;5013166;28;20037;-62
2021/07/02 04:59:19;;;;;;;1.13;0.80;;;;;;;;;;5013367;28;20038;-61
2021/07/02 05:01:44;;;;;;;0.57;0.57;;;;;;;;;;5012887;28;20038;-61
2021/07/02 05:04:10;;;;;;;5.80;1.85;;;;;;;;;;5012574;28;20057;-61
2021/07/02 05:06:37;;;;;;;2.17;0.82;;;;;;;;;;5013179;28;20040;-61
2021/07/02 05:09:05;;;;;;;1.42;0.80;;;;;;;;;;5013292;28;20049;-61
2021/07/02 05:11:32;;;;;;;1.42;1.00;;;;;;;;;;5012852;28;20483;-61
2021/07/02 05:13:59;;;;;;;0.88;0.70;;;;;;;;;;5013038;28;20501;-62
2021/07/02 05:16:24;;;;;;;1.05;0.95;;;;;;;;;;5013003;28;20018;-61
2021/07/02 05:18:49;;;;;;;2.83;1.00;;;;;;;;;;5012847;28;20033;-61
2021/07/02 05:21:15;;;;;;;0.95;0.85;;;;;;;;;;5013095;28;20017;-61
2021/07/02 05:23:41;;;;;;;1.42;0.75;;;;;;;;;;5012705;28;20013;-61
2021/07/02 05:26:09;;;;;;;1.88;1.00;;;;;;;;;;5012682;28;20110;-61
2021/07/02 05:28:35;;;;;;;2.63;0.85;;;;;;;;;;5012684;28;20479;-61
2021/07/02 05:31:01;;;;;;;1.70;0.85;;;;;;;;;;5013114;28;20057;-61
2021/07/02 05:33:26;;;;;;;4.93;1.10;;;;;;;;;;5012382;28;20609;-61
2021/07/02 05:35:53;;;;;;;1.10;0.90;;;;;;;;;;5012751;28;20018;-61
2021/07/02 05:38:19;;;;;;;0.88;0.77;;;;;;;;;;5012866;28;20100;-61
2021/07/02 05:40:45;;;;;;;3.15;1.30;;;;;;;;;;5012020;28;20062;-62
2021/07/02 05:43:10;;;;;;;1.80;1.23;;;;;;;;;;5026779;28;20025;-62
2021/07/02 05:45:36;;;;;;;1.65;0.80;;;;;;;;;;5036889;28;20021;-62
2021/07/02 05:48:02;;;;;;;4.03;1.30;;;;;;;;;;5036435;28;20026;-61
2021/07/02 05:50:28;;;;;;;1.40;0.95;;;;;;;;;;5037237;28;20018;-61
2021/07/02 05:52:55;;;;;;;5.18;2.75;;;;;;;;;;5039323;28;20009;-62
2021/07/02 05:55:21;;;;;;;1.02;0.93;;;;;;;;;;5036346;28;20021;-61
2021/07/02 05:57:46;;;;;;;2.50;2.00;;;;;;;;;;5037497;28;20103;-63
2021/07/02 06:00:12;;;;;;;9.35;1.63;;;;;;;;;;5039271;28;20347;-62
2021/07/02 06:02:38;;;;;;;3.70;1.13;;;;;;;;;;5037172;28;20433;-63
2021/07/02 06:05:04;;;;;;;1.80;1.38;;;;;;;;;;5036384;28;20022;-63
2021/07/02 06:07:40;;;;;;;1.67;1.10;;;;;;;;;;5037402;28;20018;-62
2021/07/02 06:10:06;;;;;;;1.35;1.00;;;;;;;;;;5036414;28;20037;-61
2021/07/02 06:12:32;;;;;;;2.50;1.10;;;;;;;;;;5037109;28;20063;-62
2021/07/02 06:14:58;;;;;;;1.60;1.00;;;;;;;;;;5035535;28;20450;-63
2021/07/02 06:17:23;;;;;;;1.25;1.15;;;;;;;;;;5018706;28;20057;-61
2021/07/02 06:19:49;;;;;;;2.58;1.17;;;;;;;;;;5030873;28;20026;-62
2021/07/02 06:22:14;;;;;;;1.90;1.00;;;;;;;;;;5032169;28;20052;-62
2021/07/02 06:24:39;;;;;;;7.32;3.83;;;;;;;;;;5031369;28;20120;-62
2021/07/02 06:27:05;;;;;;;3.65;1.58;;;;;;;;;;5031622;28;20386;-63
2021/07/02 06:29:30;;;;;;;4.05;1.40;;;;;;;;;;5030773;28;20446;-63
2021/07/02 06:31:57;;;;;;;3.97;1.45;;;;;;;;;;5030236;28;20022;-63
2021/07/02 06:34:23;;;;;;;1.48;1.10;;;;;;;;;;5030971;28;20417;-63
2021/07/02 06:36:49;;;;;;;2.42;1.10;;;;;;;;;;5032160;28;20057;-63
2021/07/02 06:39:15;;;;;;;9.48;1.08;;;;;;;;;;5030360;28;20037;-63
2021/07/02 06:41:41;;;;;;;3.08;1.40;;;;;;;;;;5030340;28;20087;-64
2021/07/02 06:44:06;;;;;;;1.55;1.10;;;;;;;;;;5031538;28;20185;-63
2021/07/02 06:46:33;;;;;;;2.92;1.13;;;;;;;;;;5032153;28;20018;-65
2021/07/02 06:48:59;;;;;;;2.78;1.10;;;;;;;;;;5031319;28;20026;-64
2021/07/02 06:51:24;;;;;;;7.13;2.10;;;;;;;;;;5031901;28;20018;-64
2021/07/02 06:53:51;;;;;;;9.18;3.10;;;;;;;;;;5031422;28;20053;-68
2021/07/02 06:56:17;;;;;;;2.70;1.13;;;;;;;;;;5031247;28;20025;-72
2021/07/02 06:58:43;;;;;;;1.35;0.98;;;;;;;;;;5031030;28;20029;-72
2021/07/02 07:01:09;;;;;;;2.28;1.00;;;;;;;;;;5033152;28;20045;-74
2021/07/02 07:03:37;;;;;;;1.63;1.13;;;;;;;;;;5034009;28;20111;-72
2021/07/02 07:06:02;;;;;;;4.93;1.23;;;;;;;;;;5034824;28;20052;-73
2021/07/02 07:08:27;;;;;;;3.65;1.10;;;;;;;;;;5035025;28;20009;-74
2021/07/02 07:10:53;;;;;;;4.18;1.42;;;;;;;;;;5034267;28;20032;-67
2021/07/02 07:13:19;;;;;;;5.10;2.28;;;;;;;;;;5034540;28;20021;-66
2021/07/02 07:15:45;;;;;;;4.25;2.28;;;;;;;;;;5034040;28;20016;-66
2021/07/02 07:18:11;;;;;;;1.85;1.30;;;;;;;;;;5033715;28;20025;-65
2021/07/02 07:20:37;;;;;;;9.98;5.57;;;;;;;;;;5034697;28;20022;-65
2021/07/02 07:23:03;;;;;;;3.65;1.77;;;;;;;;;;5033877;28;20022;-66
2021/07/02 07:25:28;;;;;;;3.38;2.25;;;;;;;;;;5034317;28;20075;-66
2021/07/02 07:27:53;;;;;;;5.43;1.20;;;;;;;;;;5034191;28;20028;-65
2021/07/02 07:30:19;;;;;;;1.38;1.08;;;;;;;;;;5034679;28;20025;-64
2021/07/02 07:32:48;;;;;;;9.05;2.35;;;;;;;;;;5034308;28;20025;-65
2021/07/02 07:35:17;;;;;;;78.05;5.82;;;;;;;;;;5033984;28;20052;-66
2021/07/02 07:45:28;;;;;;;5.70;2.50;;;;;;;;;;5269321;22;20084;-67
2021/07/02 07:47:53;;;;;;;5.80;1.92;;;;;;;;;;5033369;28;20049;-68
2021/07/02 07:50:23;;;;;;;4.28;1.95;;;;;;;;;;5033730;28;20025;-68
2021/07/02 07:52:59;;;;;;;9.90;2.40;;;;;;;;;;5033886;28;20021;-69
2021/07/02 07:55:25;;;;;;;6.57;1.73;;;;;;;;;;5034050;28;20018;-73
2021/07/02 07:57:50;;;;;;;8.15;1.50;;;;;;;;;;5033845;28;20152;-67
2021/07/02 08:00:16;;;;;;;6.05;1.65;;;;;;;;;;5034580;28;20120;-68
2021/07/02 08:02:42;;;;;;;7.82;2.08;;;;;;;;;;5049257;28;20024;-69
2021/07/02 08:05:08;;;;;;;2.33;1.63;;;;;;;;;;5051485;28;20025;-68
2021/07/02 08:07:37;;;;;;;6.53;1.70;;;;;;;;;;5053434;28;20024;-68
2021/07/02 08:10:03;;;;;;;14.85;2.78;;;;;;;;;;5051073;28;20037;-69
2021/07/02 08:12:29;;;;;;;6.88;2.08;;;;;;;;;;5035235;28;20450;-72
2021/07/02 08:14:54;;;;;;;8.40;1.73;;;;;;;;;;5031789;28;20100;-70
2021/07/02 08:17:23;;;;;;;3.13;1.63;;;;;;;;;;5034323;28;20040;-70
2021/07/02 08:19:48;;;;;;;724.53;662.35;;;;;;;;;;5033504;28;20079;-67
2021/07/02 08:22:14;;;;;;;36.47;8.50;;;;;;;;;;5032576;28;20029;-64
2021/07/02 08:24:40;;;;;;;27.67;3.13;;;;;;;;;;5032519;28;20021;-70
2021/07/02 08:27:08;;;;;;;2.33;1.60;;;;;;;;;;5032871;28;20013;-76
2021/07/02 08:29:33;;;;;;;14.15;3.28;;;;;;;;;;5034418;28;20069;-78
2021/07/02 08:31:59;;;;;;;12.88;5.45;;;;;;;;;;5016381;28;20040;-76
2021/07/02 08:34:25;;;;;;;8.05;2.30;;;;;;;;;;5031669;28;20033;-68
2021/07/02 08:36:50;;;;;;;11.90;2.83;;;;;;;;;;5038271;28;20064;-67
2021/07/02 08:39:16;;;;;;;8.48;2.67;;;;;;;;;;5051717;28;20096;-66
2021/07/02 08:41:42;;;;;;;13.55;3.15;;;;;;;;;;5051203;28;20389;-70
2021/07/02 08:44:07;;;;;;;4.07;2.00;;;;;;;;;;5051760;28;20135;-69
2021/07/02 08:46:37;;;;;;;9.90;2.40;;;;;;;;;;5052779;28;20005;-75
2021/07/02 08:49:03;;;;;;;8.02;2.55;;;;;;;;;;5052857;28;20021;-68
2021/07/02 08:51:28;;;;;;;13.75;2.85;;;;;;;;;;5053297;28;20024;-68
2021/07/02 08:53:54;;;;;;;8.63;2.58;;;;;;;;;;5052332;28;20040;-69
2021/07/02 08:56:20;;;;;;;5.60;2.70;;;;;;;;;;5054142;28;20473;-68
2021/07/02 08:58:45;;;;;;;15.32;3.35;;;;;;;;;;5054255;28;20009;-69
2021/07/02 09:01:31;;;;;;;9.93;2.53;;;;;;;;;;5052401;28;20547;-68
2021/07/02 09:04:13;;;;;;;8.20;2.00;;;;;;;;;;5030573;28;20021;-68
2021/07/02 09:06:40;;;;;;;9.55;2.78;;;;;;;;;;5032640;28;20010;-67
2021/07/02 09:09:07;;;;;;;9.43;2.88;;;;;;;;;;5042823;28;20096;-68
2021/07/02 09:11:35;;;;;;;17.83;4.38;;;;;;;;;;5062796;28;20031;-73
2021/07/02 09:14:00;;;;;;;9.32;2.63;;;;;;;;;;5041242;28;20198;-75
2021/07/02 09:16:28;;;;;;;16.45;3.55;;;;;;;;;;5063977;28;20426;-73
2021/07/02 09:18:54;;;;;;;9.30;2.63;;;;;;;;;;5038238;28;20025;-74
2021/07/02 09:21:32;;;;;;;17.05;4.57;;;;;;;;;;5054302;28;20017;-66
2021/07/02 09:23:58;;;;;;;5.90;2.60;;;;;;;;;;5051556;28;20024;-67
2021/07/02 09:26:38;;;;;;;22.17;6.35;;;;;;;;;;5048969;28;20124;-69
2021/07/02 09:29:18;;;;;;;14.68;3.63;;;;;;;;;;5047548;28;20056;-68
2021/07/02 09:31:45;;;;;;;15.73;3.53;;;;;;;;;;5047517;28;20025;-68
2021/07/02 09:34:10;;;;;;;5.97;2.22;;;;;;;;;;5051204;28;20045;-69
2021/07/02 09:36:35;;;;;;;7.07;2.92;;;;;;;;;;5051527;28;20151;-71
2021/07/02 09:39:01;;;;;;;7.72;2.75;;;;;;;;;;5050579;28;20521;-72
2021/07/02 09:41:33;;;;;;;4.53;2.15;;;;;;;;;;5033487;28;20507;-68
2021/07/02 09:44:18;;;;;;;5.68;1.95;;;;;;;;;;5051385;28;20115;-69
2021/07/02 09:46:43;;;;;;;4.22;2.17;;;;;;;;;;5048770;28;20048;-67
2021/07/02 09:49:22;;;;;;;6.22;2.30;;;;;;;;;;5050406;28;20029;-67
2021/07/02 09:51:48;;;;;;;6.30;2.45;;;;;;;;;;5050655;28;20428;-66
2021/07/02 09:54:13;;;;;;;5.22;2.10;;;;;;;;;;5050767;28;20036;-68
2021/07/02 09:56:38;;;;;;;6.10;1.88;;;;;;;;;;5051673;28;20025;-66
2021/07/02 09:59:14;;;;;;;3.08;1.33;;;;;;;;;;5051693;28;20071;-67
2021/07/02 10:01:39;;;;;;;4.28;2.25;;;;;;;;;;5049890;28;20014;-67
2021/07/02 10:04:09;;;;;;;6.47;1.60;;;;;;;;;;5047803;28;20036;-67
2021/07/02 10:06:34;;;;;;;4.32;1.70;;;;;;;;;;5049675;28;20028;-67
2021/07/02 10:09:03;;;;;;;3.83;1.50;;;;;;;;;;5049106;28;20032;-66
2021/07/02 10:11:28;;;;;;;3.55;1.42;;;;;;;;;;5050931;28;20021;-67
2021/07/02 10:13:54;;;;;;;3.33;1.90;;;;;;;;;;5049515;28;20047;-67
2021/07/02 10:16:20;;;;;;;2.47;1.48;;;;;;;;;;5050454;28;20013;-66
2021/07/02 10:18:47;;;;;;;3.60;1.75;;;;;;;;;;5050748;28;20100;-68
2021/07/02 10:21:12;;;;;;;3.20;1.90;;;;;;;;;;5051110;28;20017;-66
2021/07/02 10:23:42;;;;;;;2.65;1.73;;;;;;;;;;5027347;28;20022;-66
2021/07/02 10:26:08;;;;;;;9.00;2.42;;;;;;;;;;5049664;28;20044;-66
2021/07/02 10:28:37;;;;;;;4.65;1.70;;;;;;;;;;5042039;28;20021;-65
2021/07/02 10:31:06;;;;;;;4.95;1.40;;;;;;;;;;5049703;28;20100;-66
2021/07/02 10:33:31;;;;;;;;;;;;;;;;;;5049962;28;20056;-67
2021/07/02 10:36:04;;;;;;;1.40;1.30;;;;;;;;;;5052149;28;19955;-67
2021/07/02 10:38:34;;;;;;;3.78;1.70;;;;;;;;;;5051421;28;20036;-69
2021/07/02 10:41:18;;;;;;;7.40;2.30;;;;;;;;;;5053086;28;20397;-69
2021/07/02 10:44:03;;;;;;;11.65;2.58;;;;;;;;;;5053900;28;20504;-69
2021/07/02 10:46:28;;;;;;;3.70;1.70;;;;;;;;;;5069144;28;20512;-67
2021/07/02 10:48:56;;;;;;;3.78;2.28;;;;;;;;;;5066361;28;20017;-66
2021/07/02 10:51:39;;;;;;;5.28;2.00;;;;;;;;;;5059471;28;20166;-66
2021/07/02 10:54:21;;;;;;;8.07;1.95;;;;;;;;;;5063783;28;20059;-67
2021/07/02 10:56:56;;;;;;;3.22;1.80;;;;;;;;;;5056278;28;20032;-67
2021/07/02 10:59:41;;;;;;;5.90;2.10;;;;;;;;;;5050740;28;20481;-67
2021/07/02 11:02:15;;;;;;;7.13;1.30;;;;;;;;;;5036425;28;20515;-70
2021/07/02 11:04:42;;;;;;;8.05;2.05;;;;;;;;;;5027453;28;20038;-71
2021/07/02 11:07:29;;;;;;;2.70;1.60;;;;;;;;;;5054031;28;20052;-69
2021/07/02 11:09:56;;;;;;;4.88;1.92;;;;;;;;;;5053263;28;20028;-70
2021/07/02 11:12:22;;;;;;;5.50;1.70;;;;;;;;;;5032380;28;20107;-69
2021/07/02 11:15:02;;;;;;;3.55;1.75;;;;;;;;;;5049760;28;20242;-65
2021/07/02 11:17:32;;;;;;;4.75;1.50;;;;;;;;;;5055466;28;20086;-65
2021/07/02 11:20:20;;;;;;;4.45;1.80;;;;;;;;;;5055314;28;20025;-66
2021/07/02 11:22:47;;;;;;;5.22;1.40;;;;;;;;;;5033636;28;20017;-66
2021/07/02 11:25:22;;;;;;;3.17;1.08;;;;;;;;;;5042858;28;20023;-66
2021/07/02 11:27:56;;;;;;;3.70;1.38;;;;;;;;;;5053590;28;20021;-66
2021/07/02 11:30:33;;;;;;;1.77;1.15;;;;;;;;;;5053499;28;20052;-68
2021/07/02 11:33:18;;;;;;;4.45;1.55;;;;;;;;;;5053940;28;20031;-69
2021/07/02 11:35:44;;;;;;;3.53;1.50;;;;;;;;;;5053300;28;20027;-68
2021/07/02 11:38:14;;;;;;;2.65;1.50;;;;;;;;;;5031868;28;20084;-68
2021/07/02 11:40:54;;;;;;;4.75;1.58;;;;;;;;;;5049273;28;20549;-68
2021/07/02 11:43:21;;;;;;;2.17;0.95;;;;;;;;;;5052428;28;20056;-67
2021/07/02 11:45:48;;;;;;;2.17;1.02;;;;;;;;;;5051674;28;20052;-68
2021/07/02 11:48:26;;;;;;;1.00;0.90;;;;;;;;;;5053732;28;20029;-67
2021/07/02 11:50:56;;;;;;;2.40;1.00;;;;;;;;;;5052942;28;20025;-69
2021/07/02 11:53:35;;;;;;;95.68;17.70;;;;;;;;;;5034718;28;20044;-70
2021/07/02 11:56:14;;;;;;;3.70;1.80;;;;;;;;;;5053601;28;20020;-67
2021/07/02 11:58:41;;;;;;;4.10;1.38;;;;;;;;;;5053111;28;20406;-67
2021/07/02 12:01:07;;;;;;;2.65;1.50;;;;;;;;;;5035727;28;20561;-67
2021/07/02 12:03:34;;;;;;;2.42;1.20;;;;;;;;;;5052839;28;20377;-67
2021/07/02 12:06:00;;;;;;;7.70;1.23;;;;;;;;;;5052592;28;20430;-67
2021/07/02 12:08:26;;;;;;;3.25;1.27;;;;;;;;;;5053501;28;20115;-67
2021/07/02 12:10:56;;;;;;;1.77;1.25;;;;;;;;;;5035839;28;20021;-67
2021/07/02 12:13:24;;;;;;;12.18;2.17;;;;;;;;;;5049401;28;20115;-67
2021/07/02 12:16:03;;;;;;;4.75;1.42;;;;;;;;;;5053617;28;20029;-65
2021/07/02 12:18:29;;;;;;;1.40;1.10;;;;;;;;;;5053465;28;20029;-66
2021/07/02 12:21:02;;;;;;;7.40;1.23;;;;;;;;;;5053193;28;20071;-67
2021/07/02 12:23:29;;;;;;;8.13;1.23;;;;;;;;;;5015303;28;20052;-68
2021/07/02 12:26:14;;;;;;;6.85;1.23;;;;;;;;;;5051570;28;20493;-70
2021/07/02 12:28:59;;;;;;;5.07;1.15;;;;;;;;;;5049052;28;20016;-67
2021/07/02 12:31:25;;;;;;;5.22;1.10;;;;;;;;;;5052664;28;20051;-66
2021/07/02 12:33:51;;;;;;;10.88;1.40;;;;;;;;;;5052576;28;20028;-66
2021/07/02 12:36:16;;;;;;;2.60;0.90;;;;;;;;;;5052073;28;20017;-67
2021/07/02 12:39:00;;;;;;;2.25;1.10;;;;;;;;;;5050909;28;20037;-67
2021/07/02 12:41:33;;;;;;;3.53;0.93;;;;;;;;;;5050161;28;20101;-67
2021/07/02 12:43:59;;;;;;;1.20;0.90;;;;;;;;;;5034448;28;20029;-69
2021/07/02 12:46:26;;;;;;;4.28;1.00;;;;;;;;;;5036480;28;20033;-65
2021/07/02 12:49:11;;;;;;;2.55;1.00;;;;;;;;;;5056986;28;20021;-68
2021/07/02 12:51:37;;;;;;;1.30;0.82;;;;;;;;;;5032189;28;20026;-69
2021/07/02 12:56:46;;;;;;;1.90;1.40;;;;;;;;;;5060385;28;20035;-72
2021/07/02 12:59:12;;;;;;;2.85;1.08;;;;;;;;;;5071436;28;20405;-71
2021/07/02 13:01:45;;;;;;;1.98;0.85;;;;;;;;;;5072375;28;20017;-71
2021/07/02 13:04:10;;;;;;;0.80;0.70;;;;;;;;;;5058485;28;20025;-70
2021/07/02 13:06:36;;;;;;;2.55;0.77;;;;;;;;;;5051861;28;20422;-68
2021/07/02 13:09:02;;;;;;;3.92;1.40;;;;;;;;;;5052220;28;20019;-74
2021/07/02 13:11:27;;;;;;;2.05;0.70;;;;;;;;;;5052435;28;20387;-72
2021/07/02 13:13:52;;;;;;;1.63;0.93;;;;;;;;;;5051516;28;20123;-70
2021/07/02 13:16:18;;;;;;;4.30;0.68;;;;;;;;;;5055311;28;20025;-71
2021/07/02 13:18:53;;;;;;;3.20;1.02;;;;;;;;;;5050678;28;20188;-71
2021/07/02 13:21:29;;;;;;;3.10;0.88;;;;;;;;;;5033780;28;20167;-71
2021/07/02 13:23:56;;;;;;;4.40;0.80;;;;;;;;;;5058324;28;20049;-70
2021/07/02 13:26:26;;;;;;;4.05;0.63;;;;;;;;;;5056300;28;20024;-70
2021/07/02 13:28:59;;;;;;;1.67;0.98;;;;;;;;;;5059230;28;20051;-71
2021/07/02 13:31:28;;;;;;;9.95;1.40;;;;;;;;;;5057204;28;20090;-70
2021/07/02 13:33:59;;;;;;;4.55;0.90;;;;;;;;;;5054004;28;20017;-71
2021/07/02 13:36:35;;;;;;;3.70;0.80;;;;;;;;;;5047460;28;20485;-71
2021/07/02 13:39:04;;;;;;;4.78;0.80;;;;;;;;;;5052235;28;20107;-72
2021/07/02 13:41:30;;;;;;;9.25;1.00;;;;;;;;;;5052341;28;20060;-71
2021/07/02 13:43:57;;;;;;;3.70;1.05;;;;;;;;;;5051871;28;20029;-72
2021/07/02 13:46:28;;;;;;;7.13;0.98;;;;;;;;;;5030451;28;20112;-72
2021/07/02 13:48:54;;;;;;;4.88;0.80;;;;;;;;;;5051987;28;20056;-72
2021/07/02 13:51:20;;;;;;;4.25;1.20;;;;;;;;;;5051864;28;20045;-72
2021/07/02 13:53:47;;;;;;;5.78;1.00;;;;;;;;;;5052070;28;20021;-73
2021/07/02 13:56:13;;;;;;;1.52;1.20;;;;;;;;;;5052253;28;20036;-72
2021/07/02 13:58:39;;;;;;;2.92;0.95;;;;;;;;;;5052106;28;20032;-71
2021/07/02 14:01:06;;;;;;;1.05;0.70;;;;;;;;;;5051852;28;20040;-70
2021/07/02 14:03:33;;;;;;;1.40;0.98;;;;;;;;;;5051897;28;20063;-71
2021/07/02 14:05:59;;;;;;;3.80;0.98;;;;;;;;;;5052016;28;20017;-74
2021/07/02 14:08:25;;;;;;;3.00;0.77;;;;;;;;;;5052139;28;20386;-71
2021/07/02 14:10:50;;;;;;;3.70;0.80;;;;;;;;;;5055282;28;20017;-72
2021/07/02 14:13:17;;;;;;;0.80;0.77;;;;;;;;;;5056081;28;20478;-71
2021/07/02 14:15:43;;;;;;;1.60;0.70;;;;;;;;;;5055799;28;20013;-71
2021/07/02 14:18:10;;;;;;;2.47;0.80;;;;;;;;;;5055694;28;20029;-71
2021/07/02 14:20:36;;;;;;;2.60;1.00;;;;;;;;;;5055913;28;20450;-71
2021/07/02 14:23:02;;;;;;;1.13;0.75;;;;;;;;;;5055875;28;20102;-72
2021/07/02 14:25:28;;;;;;;1.52;0.80;;;;;;;;;;5056216;28;20025;-72
2021/07/02 14:27:55;;;;;;;2.22;0.68;;;;;;;;;;5055540;28;20124;-73
2021/07/02 14:30:22;;;;;;;1.40;0.93;;;;;;;;;;5037763;28;20025;-71
2021/07/02 14:32:48;;;;;;;0.95;0.82;;;;;;;;;;5055798;28;20359;-71
2021/07/02 14:35:16;;;;;;;1.33;0.85;;;;;;;;;;5055658;28;20393;-71
2021/07/02 14:37:43;;;;;;;0.80;0.80;;;;;;;;;;5055353;28;20035;-71
2021/07/02 14:40:10;;;;;;;3.25;0.98;;;;;;;;;;5021336;28;20017;-71
2021/07/02 14:42:36;;;;;;;4.07;1.08;;;;;;;;;;5055499;28;20063;-70
2021/07/02 14:45:02;;;;;;;4.43;0.85;;;;;;;;;;5044477;28;20085;-73
2021/07/02 14:47:28;;;;;;;4.38;0.85;;;;;;;;;;5055588;28;20028;-72
2021/07/02 14:49:54;;;;;;;2.72;1.00;;;;;;;;;;5055087;28;20059;-72
2021/07/02 14:52:21;;;;;;;5.75;0.95;;;;;;;;;;5055671;28;20021;-71
2021/07/02 14:54:47;;;;;;;2.55;0.95;;;;;;;;;;5055375;28;20013;-72